createdAt,value
2018-06-22T00:00:31.830Z,99878.63
2018-06-22T00:03:01.517Z,99878.46
2018-06-22T00:05:31.186Z,99880.26
2018-06-22T00:08:00.647Z,99883.47
2018-06-22T00:10:30.048Z,99887.72
2018-06-22T00:12:59.718Z,99886.89
2018-06-22T00:15:29.422Z,99888.92
2018-06-22T00:17:58.813Z,99885.63
2018-06-22T00:20:28.638Z,99887.14
2018-06-22T00:22:58.059Z,99891.17
2018-06-22T00:25:27.823Z,99889.33
2018-06-22T00:27:57.480Z,99900.73
2018-06-22T00:30:27.148Z,99892.52
2018-06-22T00:32:56.854Z,99892.17
2018-06-22T00:35:26.539Z,99894.86
2018-06-22T00:37:56.198Z,99891.46
2018-06-22T00:40:25.602Z,99896.12
2018-06-22T00:42:55.269Z,99896.86
2018-06-22T00:45:25.027Z,99891.16
2018-06-22T00:47:54.689Z,99894.63
2018-06-22T00:50:24.376Z,99904.13
2018-06-22T00:52:54.406Z,99903.27
2018-06-22T00:55:24.063Z,99900.51
2018-06-22T00:57:53.767Z,99901.03
2018-06-22T01:00:23.469Z,99897.69
2018-06-22T01:02:52.927Z,99899.10
2018-06-22T01:05:22.614Z,99894.97
2018-06-22T01:07:52.278Z,99893.09
2018-06-22T01:10:21.966Z,99888.50
2018-06-22T01:12:51.638Z,99892.73
2018-06-22T01:15:21.026Z,99891.66
2018-06-22T01:17:50.707Z,99890.92
2018-06-22T01:20:20.383Z,99895.25
2018-06-22T01:22:50.122Z,99888.70
2018-06-22T01:25:19.800Z,99893.48
2018-06-22T01:27:49.478Z,99891.50
2018-06-22T01:30:19.153Z,99891.80
2018-06-22T01:32:48.835Z,99894.75
2018-06-22T01:35:18.258Z,99901.69
2018-06-22T01:37:48.006Z,99901.83
2018-06-22T01:40:17.713Z,99902.97
2018-06-22T01:42:47.366Z,99904.29
2018-06-22T01:45:17.050Z,99901.03
2018-06-22T01:47:46.750Z,99902.59
2018-06-22T01:50:16.478Z,99903.05
2018-06-22T01:52:46.131Z,99907.63
2018-06-22T01:55:18.755Z,99901.34
2018-06-22T01:57:48.450Z,99902.37
2018-06-22T02:00:18.155Z,99905.12
2018-06-22T02:02:47.837Z,99905.86
2018-06-22T02:05:17.520Z,99907.82
2018-06-22T02:07:47.205Z,99913.05
2018-06-22T02:10:16.871Z,99905.55
2018-06-22T02:12:46.606Z,99909.46
2018-06-22T02:15:16.279Z,99909.47
2018-06-22T02:17:45.982Z,99919.84
2018-06-22T02:20:15.690Z,99922.00
2018-06-22T02:22:45.374Z,99911.81
2018-06-22T02:25:15.097Z,99923.11
2018-06-22T02:27:44.814Z,99924.92
2018-06-22T02:30:14.510Z,99925.93
2018-06-22T02:32:44.195Z,99931.38
2018-06-22T02:35:13.892Z,99933.55
2018-06-22T02:37:43.607Z,99931.78
2018-06-22T02:40:13.284Z,99938.35
2018-06-22T02:42:42.682Z,99937.33
2018-06-22T02:45:12.344Z,99937.12
2018-06-22T02:47:42.006Z,99938.56
2018-06-22T02:50:11.714Z,99945.00
2018-06-22T02:52:41.176Z,99945.31
2018-06-22T02:55:10.853Z,99950.55
2018-06-22T02:57:40.515Z,99952.83
2018-06-22T03:00:10.182Z,99955.28
2018-06-22T03:02:40.137Z,99956.55
2018-06-22T03:05:09.796Z,99956.88
2018-06-22T03:07:39.523Z,99953.39
2018-06-22T03:10:08.911Z,99954.44
2018-06-22T03:12:38.612Z,99958.01
2018-06-22T03:15:08.327Z,99950.02
2018-06-22T03:17:37.711Z,99956.88
2018-06-22T03:20:07.116Z,99955.14
2018-06-22T03:22:36.801Z,99962.02
2018-06-22T03:25:06.506Z,99961.19
2018-06-22T03:27:36.238Z,99959.24
2018-06-22T03:30:05.665Z,99965.09
2018-06-22T03:32:35.323Z,99968.70
2018-06-22T03:35:04.747Z,99974.06
2018-06-22T03:37:34.438Z,99977.34
2018-06-22T03:40:04.452Z,99970.26
2018-06-22T03:42:33.886Z,99972.03
2018-06-22T03:45:03.620Z,99966.56
2018-06-22T03:47:33.290Z,99965.95
2018-06-22T03:50:02.988Z,99971.00
2018-06-22T03:52:32.718Z,99965.13
2018-06-22T03:55:02.395Z,99968.52
2018-06-22T03:57:32.246Z,99972.03
2018-06-22T04:00:01.923Z,99970.11
2018-06-22T04:02:31.342Z,99975.83
2018-06-22T04:05:01.155Z,99984.10
2018-06-22T04:07:30.549Z,99982.98
2018-06-22T04:10:00.015Z,99977.13
2018-06-22T04:12:29.694Z,99983.05
2018-06-22T04:14:59.379Z,99989.02
2018-06-22T04:17:29.082Z,99985.67
2018-06-22T04:19:58.751Z,99997.53
2018-06-22T04:22:28.485Z,99987.24
2018-06-22T04:24:57.866Z,99993.00
2018-06-22T04:27:27.278Z,99991.77
2018-06-22T04:29:56.686Z,99991.92
2018-06-22T04:32:26.080Z,99993.56
2018-06-22T04:34:55.783Z,99991.87
2018-06-22T04:37:25.439Z,99991.58
2018-06-22T04:39:54.831Z,99989.02
2018-06-22T04:42:24.502Z,99994.52
2018-06-22T04:44:54.234Z,99993.48
2018-06-22T04:47:24.050Z,99991.41
2018-06-22T04:49:53.769Z,99994.48
2018-06-22T04:52:23.450Z,99990.78
2018-06-22T04:54:53.193Z,99993.55
2018-06-22T04:57:22.855Z,99996.30
2018-06-22T04:59:52.564Z,99996.94
2018-06-22T05:02:22.283Z,99993.33
2018-06-22T05:04:52.148Z,99993.24
2018-06-22T05:07:21.838Z,99996.31
2018-06-22T05:09:51.537Z,99989.81
2018-06-22T05:12:20.999Z,99989.77
2018-06-22T05:14:50.718Z,99983.11
2018-06-22T05:17:20.423Z,99976.33
2018-06-22T05:19:50.135Z,99981.16
2018-06-22T05:22:20.374Z,99984.45
2018-06-22T05:24:50.470Z,99983.43
2018-06-22T05:27:20.999Z,99992.29
2018-06-22T05:29:51.301Z,99987.11
2018-06-22T05:32:21.540Z,99994.37
2018-06-22T05:34:51.809Z,99996.25
2018-06-22T05:37:22.055Z,99995.50
2018-06-22T05:39:52.320Z,99990.58
2018-06-22T05:42:22.597Z,99984.59
2018-06-22T05:44:52.854Z,99989.39
2018-06-22T05:47:23.182Z,99989.34
2018-06-22T05:49:53.439Z,99992.00
2018-06-22T05:52:23.424Z,99992.66
2018-06-22T05:54:53.693Z,99987.15
2018-06-22T05:57:23.946Z,99987.30
2018-06-22T05:59:54.227Z,99986.33
2018-06-22T06:02:24.493Z,99987.88
2018-06-22T06:04:54.755Z,99985.80
2018-06-22T06:07:24.978Z,99986.27
2018-06-22T06:09:55.416Z,99985.77
2018-06-22T06:12:25.145Z,99986.89
2018-06-22T06:14:55.438Z,99980.19
2018-06-22T06:17:25.456Z,99982.11
2018-06-22T06:19:55.993Z,99984.42
2018-06-22T06:22:26.207Z,99976.36
2018-06-22T06:24:56.184Z,99978.89
2018-06-22T06:27:25.878Z,99978.77
2018-06-22T06:29:55.844Z,99971.17
2018-06-22T06:32:25.828Z,99968.78
2018-06-22T06:34:55.834Z,99973.58
2018-06-22T06:37:25.796Z,99965.97
2018-06-22T06:39:55.472Z,99955.61
2018-06-22T06:42:25.514Z,99965.41
2018-06-22T06:44:55.674Z,99954.99
2018-06-22T06:47:25.946Z,99966.50
2018-06-22T06:49:55.923Z,99967.78
2018-06-22T06:52:25.917Z,99958.94
2018-06-22T06:54:55.867Z,99955.77
2018-06-22T06:57:25.802Z,99956.73
2018-06-22T06:59:55.891Z,99959.59
2018-06-22T07:02:25.918Z,99949.58
2018-06-22T07:04:56.122Z,99957.60
2018-06-22T07:07:26.107Z,99957.30
2018-06-22T07:09:56.089Z,99956.45
2018-06-22T07:12:26.060Z,99955.73
2018-06-22T07:14:55.763Z,99948.97
2018-06-22T07:17:25.784Z,99953.94
2018-06-22T07:19:55.733Z,99955.58
2018-06-22T07:22:25.755Z,99953.98
2018-06-22T07:24:55.733Z,99954.98
2018-06-22T07:27:25.723Z,99952.80
2018-06-22T07:29:55.716Z,99952.02
2018-06-22T07:32:25.677Z,99948.25
2018-06-22T07:34:55.969Z,99953.34
2018-06-22T07:37:26.213Z,99943.13
2018-06-22T07:39:57.829Z,99943.31
2018-06-22T07:42:27.835Z,99948.86
2018-06-22T07:44:57.544Z,99956.74
2018-06-22T07:47:27.554Z,99943.41
2018-06-22T07:49:57.805Z,99948.47
2018-06-22T07:52:28.260Z,99954.95
2018-06-22T07:54:58.567Z,99950.98
2018-06-22T07:57:29.056Z,99945.55
2018-06-22T07:59:59.443Z,99944.95
2018-06-22T08:02:29.814Z,99947.70
2018-06-22T08:05:00.134Z,99942.45
2018-06-22T08:07:30.414Z,99939.67
2018-06-22T08:10:00.674Z,99943.48
2018-06-22T08:12:30.998Z,99926.89
2018-06-22T08:15:01.322Z,99938.28
2018-06-22T08:17:31.373Z,99943.42
2018-06-22T08:20:01.548Z,99937.90
2018-06-22T08:22:31.910Z,99946.73
2018-06-22T08:25:02.262Z,99945.97
2018-06-22T08:27:32.518Z,99952.41
2018-06-22T08:30:02.824Z,99949.74
2018-06-22T08:32:33.141Z,99960.25
2018-06-22T08:35:03.445Z,99965.09
2018-06-22T08:37:33.691Z,99969.34
2018-06-22T08:40:03.986Z,99969.77
2018-06-22T08:42:34.223Z,99971.25
2018-06-22T08:45:04.326Z,99956.95
2018-06-22T08:47:34.553Z,99959.22
2018-06-22T08:50:04.828Z,99967.14
2018-06-22T08:52:34.891Z,99974.59
2018-06-22T08:55:05.487Z,99965.17
2018-06-22T08:57:35.499Z,99970.44
2018-06-22T09:00:05.899Z,99968.81
2018-06-22T09:02:35.956Z,99972.22
2018-06-22T09:05:06.222Z,99968.13
2018-06-22T09:07:36.470Z,99963.35
2018-06-22T09:10:06.762Z,99963.45
2018-06-22T09:12:37.058Z,99968.73
2018-06-22T09:15:07.511Z,99973.30
2018-06-22T09:17:37.799Z,99971.33
2018-06-22T09:20:08.078Z,99984.77
2018-06-22T09:22:37.750Z,99991.56
2018-06-22T09:25:07.759Z,99996.98
2018-06-22T09:27:37.501Z,99995.61
2018-06-22T09:30:06.923Z,100009.33
2018-06-22T09:32:37.266Z,100010.05
2018-06-22T09:35:08.258Z,100015.30
2018-06-22T09:37:38.424Z,100018.11
2018-06-22T09:40:08.230Z,100012.59
2018-06-22T09:42:37.776Z,100008.25
2018-06-22T09:45:07.687Z,100026.13
2018-06-22T09:47:37.542Z,100028.83
2018-06-22T09:50:06.982Z,100039.38
2018-06-22T09:52:36.406Z,100045.91
2018-06-22T09:55:06.370Z,100041.02
2018-06-22T09:57:36.079Z,100043.31
2018-06-22T10:00:05.931Z,100057.74
2018-06-22T10:02:35.415Z,100059.03
2018-06-22T10:05:05.162Z,100065.78
2018-06-22T10:07:34.850Z,100065.73
2018-06-22T10:10:04.564Z,100061.63
2018-06-22T10:12:34.264Z,100072.78
2018-06-22T10:15:04.020Z,100071.45
2018-06-22T10:17:33.452Z,100064.47
2018-06-22T10:20:03.166Z,100067.27
2018-06-22T10:22:32.862Z,100067.81
2018-06-22T10:25:02.586Z,100063.73
2018-06-22T10:27:32.290Z,100064.00
2018-06-22T10:30:01.979Z,100066.93
2018-06-22T10:32:31.675Z,100076.07
2018-06-22T10:35:01.350Z,100071.33
2018-06-22T10:37:31.139Z,100069.80
2018-06-22T10:40:00.983Z,100067.26
2018-06-22T10:42:30.408Z,100067.73
2018-06-22T10:44:59.830Z,100070.24
2018-06-22T10:47:29.544Z,100059.81
2018-06-22T10:49:59.262Z,100060.23
2018-06-22T10:52:28.996Z,100057.83
2018-06-22T10:54:58.731Z,100055.45
2018-06-22T10:57:28.547Z,100063.07
2018-06-22T10:59:58.558Z,100063.89
2018-06-22T11:02:28.282Z,100060.38
2018-06-22T11:04:58.028Z,100062.06
2018-06-22T11:07:27.728Z,100060.45
2018-06-22T11:09:57.415Z,100063.95
2018-06-22T11:12:27.145Z,100066.77
2018-06-22T11:14:56.830Z,100059.01
2018-06-22T11:17:26.551Z,100062.27
2018-06-22T11:19:56.292Z,100057.45
2018-06-22T11:22:25.978Z,100060.16
2018-06-22T11:24:55.731Z,100060.08
2018-06-22T11:27:25.681Z,100059.52
2018-06-22T11:29:55.614Z,100061.91
2018-06-22T11:32:25.283Z,100063.80
2018-06-22T11:34:55.008Z,100061.02
2018-06-22T11:37:24.739Z,100062.12
2018-06-22T11:39:54.438Z,100065.12
2018-06-22T11:42:24.162Z,100066.41
2018-06-22T11:44:54.238Z,100064.56
2018-06-22T11:47:23.935Z,100059.66
2018-06-22T11:49:53.614Z,100064.17
2018-06-22T11:52:23.331Z,100064.19
2018-06-22T11:54:53.454Z,100062.78
2018-06-22T11:57:22.883Z,100064.34
2018-06-22T11:59:52.310Z,100058.27
2018-06-22T12:02:22.101Z,100061.98
2018-06-22T12:04:52.934Z,100059.70
2018-06-22T12:07:22.658Z,100062.59
2018-06-22T12:09:52.360Z,100058.76
2018-06-22T12:12:21.824Z,100061.06
2018-06-22T12:14:51.535Z,100068.74
2018-06-22T12:17:21.230Z,100063.50
2018-06-22T12:19:50.964Z,100062.59
2018-06-22T12:22:20.374Z,100061.91
2018-06-22T12:24:50.250Z,100066.09
2018-06-22T12:27:20.179Z,100064.23
2018-06-22T12:29:50.614Z,100064.28
2018-06-22T12:32:20.493Z,100067.53
2018-06-22T12:34:50.299Z,100063.99
2018-06-22T12:37:20.480Z,100060.96
2018-06-22T12:39:50.346Z,100060.96
2018-06-22T12:42:20.316Z,100055.30
2018-06-22T12:44:50.098Z,100059.92
2018-06-22T12:47:20.381Z,100054.46
2018-06-22T12:49:50.144Z,100049.75
2018-06-22T12:52:19.850Z,100050.89
2018-06-22T12:54:49.635Z,100047.37
2018-06-22T12:57:19.320Z,100048.21
2018-06-22T12:59:49.058Z,100047.86
2018-06-22T13:02:18.793Z,100044.38
2018-06-22T13:04:48.765Z,100041.69
2018-06-22T13:07:18.479Z,100041.14
2018-06-22T13:09:48.184Z,100031.66
2018-06-22T13:12:17.595Z,100027.67
2018-06-22T13:14:47.310Z,100031.46
2018-06-22T13:17:17.363Z,100021.40
2018-06-22T13:19:47.085Z,100016.06
2018-06-22T13:22:16.983Z,100018.18
2018-06-22T13:24:46.679Z,100014.07
2018-06-22T13:27:16.394Z,100015.17
2018-06-22T13:29:46.094Z,100007.13
2018-06-22T13:32:15.790Z,100004.58
2018-06-22T13:34:45.483Z,100009.27
2018-06-22T13:37:15.576Z,100007.55
2018-06-22T13:39:45.310Z,100008.87
2018-06-22T13:42:14.999Z,100000.47
2018-06-22T13:44:45.142Z,100008.98
2018-06-22T13:47:14.823Z,100004.19
2018-06-22T13:49:44.543Z,100012.73
2018-06-22T13:52:14.284Z,99998.45
2018-06-22T13:54:44.047Z,100006.19
2018-06-22T13:57:13.769Z,100002.94
2018-06-22T13:59:43.691Z,100001.20
2018-06-22T14:02:13.143Z,100007.47
2018-06-22T14:04:47.977Z,100003.02
2018-06-22T14:07:17.386Z,100006.00
2018-06-22T14:09:47.062Z,99999.07
2018-06-22T14:12:16.765Z,100006.91
2018-06-22T14:14:46.761Z,100009.34
2018-06-22T14:17:16.442Z,100003.41
2018-06-22T14:19:46.159Z,100012.71
2018-06-22T14:22:15.842Z,100014.11
2018-06-22T14:24:45.231Z,100004.02
2018-06-22T14:27:14.962Z,100002.34
2018-06-22T14:29:44.672Z,100000.61
2018-06-22T14:32:14.398Z,100007.80
2018-06-22T14:34:44.087Z,100002.45
2018-06-22T14:37:13.780Z,99993.33
2018-06-22T14:39:43.538Z,100009.56
2018-06-22T14:42:13.234Z,100010.76
2018-06-22T14:44:42.934Z,100000.88
2018-06-22T14:47:12.619Z,99999.67
2018-06-22T14:49:42.307Z,99997.36
2018-06-22T14:52:12.028Z,99991.59
2018-06-22T14:54:46.831Z,99986.75
2018-06-22T14:57:21.782Z,99990.05
2018-06-22T14:59:56.738Z,99998.78
2018-06-22T15:02:31.505Z,99993.09
2018-06-22T15:05:06.422Z,99990.38
2018-06-22T15:07:41.511Z,99991.99
2018-06-22T15:10:11.421Z,99983.55
2018-06-22T15:12:41.326Z,99991.69
2018-06-22T15:15:11.222Z,99991.73
2018-06-22T15:17:46.171Z,99991.48
2018-06-22T15:20:16.074Z,99989.84
2018-06-22T15:22:45.595Z,99981.39
2018-06-22T15:25:16.127Z,99988.17
2018-06-22T15:27:46.209Z,99987.34
2018-06-22T15:30:16.785Z,99986.23
2018-06-22T15:32:46.470Z,99986.78
2018-06-22T15:35:21.327Z,99984.31
2018-06-22T15:37:56.615Z,99984.86
2018-06-22T15:40:31.419Z,99987.63
2018-06-22T15:43:06.317Z,99985.22
2018-06-22T15:45:41.116Z,99986.57
2018-06-22T15:48:16.710Z,99980.58
2018-06-22T15:50:51.735Z,99983.83
2018-06-22T15:53:26.826Z,99984.66
2018-06-22T15:56:02.062Z,99984.11
2018-06-22T15:58:31.943Z,99993.61
2018-06-22T16:01:01.870Z,99993.34
2018-06-22T16:03:36.839Z,99986.28
2018-06-22T16:06:07.286Z,99993.39
2018-06-22T16:08:37.211Z,99994.16
2018-06-22T16:11:07.609Z,99997.66
2018-06-22T16:13:37.239Z,99990.06
2018-06-22T16:16:12.210Z,99989.80
2018-06-22T16:18:47.534Z,99998.78
2018-06-22T16:21:22.467Z,99996.34
2018-06-22T16:23:57.578Z,99998.50
2018-06-22T16:26:32.663Z,99997.12
2018-06-22T16:29:02.614Z,100000.06
2018-06-22T16:31:32.896Z,99991.88
2018-06-22T16:34:02.735Z,99999.11
2018-06-22T16:36:32.615Z,100001.48
2018-06-22T16:39:02.415Z,99998.95
2018-06-22T16:41:32.147Z,100012.12
2018-06-22T16:44:01.890Z,100004.09
2018-06-22T16:46:31.625Z,100005.30
2018-06-22T16:49:01.119Z,100008.72
2018-06-22T16:51:31.578Z,100018.33
2018-06-22T16:54:01.282Z,100017.42
2018-06-22T16:56:31.087Z,100013.27
2018-06-22T16:59:04.067Z,100019.70
2018-06-22T17:01:34.783Z,100011.23
2018-06-22T17:04:04.569Z,100018.16
2018-06-22T17:06:39.412Z,100027.59
2018-06-22T17:09:14.621Z,100021.14
2018-06-22T17:11:49.470Z,100018.06
2018-06-22T17:14:24.227Z,100020.92
2018-06-22T17:16:59.179Z,100025.41
2018-06-22T17:19:29.073Z,100020.51
2018-06-22T17:21:58.890Z,100027.03
2018-06-22T17:24:28.740Z,100029.95
2018-06-22T17:26:58.811Z,100027.34
2018-06-22T17:29:28.893Z,100027.14
2018-06-22T17:31:58.635Z,100030.97
2018-06-22T17:34:28.419Z,100034.97
2018-06-22T17:36:58.137Z,100039.03
2018-06-22T17:39:27.821Z,100035.51
2018-06-22T17:41:57.514Z,100040.66
2018-06-22T17:44:27.247Z,100042.44
2018-06-22T17:46:57.102Z,100040.45
2018-06-22T17:49:26.723Z,100034.48
2018-06-22T17:51:56.531Z,100039.80
2018-06-22T17:54:26.425Z,100041.30
2018-06-22T17:56:56.283Z,100039.58
2018-06-22T17:59:31.259Z,100043.07
2018-06-22T18:02:06.243Z,100048.55
2018-06-22T18:04:44.444Z,100053.36
2018-06-22T18:07:20.175Z,100057.22
2018-06-22T18:09:55.199Z,100057.63
2018-06-22T18:12:31.248Z,100057.25
2018-06-22T18:15:01.217Z,100062.71
2018-06-22T18:17:31.163Z,100060.13
2018-06-22T18:20:01.396Z,100053.53
2018-06-22T18:22:31.251Z,100056.45
2018-06-22T18:25:00.966Z,100052.41
2018-06-22T18:27:30.647Z,100050.84
2018-06-22T18:30:00.680Z,100046.70
2018-06-22T18:32:30.351Z,100047.17
2018-06-22T18:35:00.463Z,100048.94
2018-06-22T18:37:30.198Z,100051.67
2018-06-22T18:40:00.020Z,100053.02
2018-06-22T18:42:29.704Z,100050.27
2018-06-22T18:44:59.519Z,100047.05
2018-06-22T18:47:29.622Z,100045.90
2018-06-22T18:49:59.498Z,100048.41
2018-06-22T18:52:34.761Z,100054.80
2018-06-22T18:55:09.966Z,100050.20
2018-06-22T18:57:44.966Z,100058.80
2018-06-22T19:00:20.220Z,100053.75
2018-06-22T19:02:55.490Z,100062.69
2018-06-22T19:05:25.844Z,100065.61
2018-06-22T19:07:55.978Z,100061.93
2018-06-22T19:10:25.788Z,100061.84
2018-06-22T19:12:55.649Z,100060.73
2018-06-22T19:15:25.569Z,100061.98
2018-06-22T19:17:55.590Z,100074.25
2018-06-22T19:20:25.690Z,100076.30
2018-06-22T19:22:55.458Z,100081.37
2018-06-22T19:25:25.633Z,100074.33
2018-06-22T19:27:55.685Z,100080.98
2018-06-22T19:30:26.308Z,100081.56
2018-06-22T19:32:56.219Z,100086.41
2018-06-22T19:35:25.957Z,100091.72
2018-06-22T19:37:55.667Z,100098.37
2018-06-22T19:40:25.372Z,100101.51
2018-06-22T19:42:55.134Z,100106.17
2018-06-22T19:45:30.224Z,100110.31
2018-06-22T19:49:07.268Z,100109.72
2018-06-22T19:51:42.040Z,100112.83
2018-06-22T19:54:11.798Z,100107.94
2018-06-22T19:56:41.507Z,100116.69
2018-06-22T19:59:11.360Z,100113.11
2018-06-22T20:01:41.470Z,100120.13
2018-06-22T20:04:11.534Z,100120.70
2018-06-22T20:06:41.690Z,100118.78
2018-06-22T20:09:11.791Z,100122.52
2018-06-22T20:11:42.445Z,100119.47
2018-06-22T20:14:12.299Z,100120.19
2018-06-22T20:16:41.726Z,100118.05
2018-06-22T20:19:11.910Z,100120.83
2018-06-22T20:21:41.658Z,100112.21
2018-06-22T20:24:11.411Z,100115.00
2018-06-22T20:26:41.133Z,100115.39
2018-06-22T20:29:10.852Z,100121.61
2018-06-22T20:31:40.657Z,100118.49
2018-06-22T20:34:15.733Z,100121.00
2018-06-22T20:36:50.675Z,100122.97
2018-06-22T20:39:25.496Z,100124.91
2018-06-22T20:42:58.491Z,100135.52
2018-06-22T20:45:33.463Z,100136.36
2018-06-22T20:48:09.224Z,100134.80
2018-06-22T20:50:39.096Z,100132.55
2018-06-22T20:53:09.039Z,100139.72
2018-06-22T20:55:39.407Z,100140.16
2018-06-22T20:58:09.167Z,100139.84
2018-06-22T21:00:39.309Z,100138.80
2018-06-22T21:03:09.719Z,100136.83
2018-06-22T21:05:39.535Z,100136.22
2018-06-22T21:08:10.514Z,100132.91
2018-06-22T21:10:40.491Z,100135.87
2018-06-22T21:13:10.483Z,100142.45
2018-06-22T21:15:40.387Z,100134.27
2018-06-22T21:18:10.259Z,100141.24
2018-06-22T21:20:44.173Z,100138.35
2018-06-22T21:23:14.048Z,100141.66
2018-06-22T21:25:43.973Z,100141.47
2018-06-22T21:28:19.188Z,100136.94
2018-06-22T21:30:54.330Z,100123.90
2018-06-22T21:33:29.543Z,100124.30
2018-06-22T21:36:04.619Z,100126.55
2018-06-22T21:38:39.612Z,100118.03
2018-06-22T21:41:09.471Z,100121.73
2018-06-22T21:43:39.271Z,100121.94
2018-06-22T21:46:08.943Z,100118.22
2018-06-22T21:48:38.802Z,100125.64
2018-06-22T21:51:08.642Z,100116.78
2018-06-22T21:53:38.357Z,100124.72
2018-06-22T21:56:08.235Z,100123.58
2018-06-22T21:58:38.053Z,100124.81
2018-06-22T22:01:09.452Z,100125.64
2018-06-22T22:03:39.606Z,100123.27
2018-06-22T22:06:09.519Z,100112.02
2018-06-22T22:08:39.527Z,100113.78
2018-06-22T22:11:10.794Z,100114.91
2018-06-22T22:13:41.133Z,100110.47
2018-06-22T22:16:10.721Z,100110.67
2018-06-22T22:18:40.400Z,100113.22
2018-06-22T22:21:10.136Z,100122.08
2018-06-22T22:23:40.046Z,100119.31
2018-06-22T22:26:10.195Z,100118.44
2018-06-22T22:28:39.983Z,100123.92
2018-06-22T22:31:09.802Z,100124.09
2018-06-22T22:33:39.544Z,100122.52
2018-06-22T22:36:09.254Z,100119.47
2018-06-22T22:38:38.931Z,100120.42
2018-06-22T22:41:09.090Z,100121.98
2018-06-22T22:43:39.223Z,100122.37
2018-06-22T22:46:08.842Z,100119.91
2018-06-22T22:48:38.342Z,100120.36
2018-06-22T22:51:08.363Z,100121.98
2018-06-22T22:53:38.450Z,100115.23
2018-06-22T22:56:08.578Z,100115.06
2018-06-22T22:58:38.185Z,100111.71
2018-06-22T23:01:07.884Z,100109.49
2018-06-22T23:03:37.635Z,100116.05
2018-06-22T23:06:07.530Z,100115.63
2018-06-22T23:08:37.366Z,100111.59
2018-06-22T23:11:07.202Z,100110.17
2018-06-22T23:13:36.898Z,100110.59
2018-06-22T23:16:06.946Z,100107.89
2018-06-22T23:18:36.742Z,100106.77
2018-06-22T23:21:06.558Z,100107.69
2018-06-22T23:23:37.787Z,100103.27
2018-06-22T23:26:08.170Z,100103.77
2018-06-22T23:28:38.366Z,100094.54
2018-06-22T23:31:08.358Z,100098.26
2018-06-22T23:33:38.433Z,100100.33
2018-06-22T23:36:08.210Z,100094.86
2018-06-22T23:38:37.914Z,100090.44
2018-06-22T23:41:07.627Z,100090.52
2018-06-22T23:43:37.143Z,100093.72
2018-06-22T23:46:06.999Z,100092.44
2018-06-22T23:48:36.574Z,100089.73
2018-06-22T23:51:06.541Z,100088.50
2018-06-22T23:53:36.237Z,100087.05
2018-06-22T23:56:05.925Z,100093.15
2018-06-22T23:58:36.004Z,100090.11
